createdAt,value
2023-01-25T00:00:49.672Z,98616.13
2023-01-25T00:06:02.358Z,98523.75
2023-01-25T00:11:05.679Z,98669.31
2023-01-25T00:16:18.360Z,98615.19
2023-01-25T00:21:23.866Z,98506.28
2023-01-25T00:26:26.676Z,98564.69
2023-01-25T00:31:35.420Z,98664.81
2023-01-25T00:36:38.259Z,98660.44
2023-01-25T00:41:41.410Z,98662.22
2023-01-25T00:46:44.083Z,98516.72
2023-01-25T00:51:47.045Z,98461.88
2023-01-25T00:56:50.236Z,98357.41
2023-01-25T01:01:54.113Z,98475.84
2023-01-25T01:07:06.799Z,98621.22
2023-01-25T01:12:10.280Z,98613.44
2023-01-25T01:17:12.821Z,98490.75
2023-01-25T01:22:18.581Z,98653.59
2023-01-25T01:27:21.485Z,98596.09
2023-01-25T01:32:24.189Z,98586.53
2023-01-25T01:37:30.933Z,98658.75
2023-01-25T01:42:33.909Z,98534.22
2023-01-25T01:47:46.931Z,98465.47
2023-01-25T01:52:51.434Z,98587.50
2023-01-25T01:57:59.144Z,98567.38
2023-01-25T02:03:02.358Z,98448.16
2023-01-25T02:08:08.955Z,98641.63
2023-01-25T02:13:11.736Z,98632.09
2023-01-25T02:18:15.433Z,98663.50
2023-01-25T02:23:53.880Z,98697.47
2023-01-25T02:29:02.994Z,98650.41
2023-01-25T02:34:05.599Z,98545.72
2023-01-25T02:39:19.080Z,98596.25
2023-01-25T02:44:34.469Z,98529.22
2023-01-25T02:49:38.084Z,98482.22
2023-01-25T02:54:40.887Z,98431.72
2023-01-25T02:59:51.269Z,98729.91
2023-01-25T03:04:53.859Z,98526.72
2023-01-25T03:10:07.075Z,98563.31
2023-01-25T03:15:10.577Z,98726.34
2023-01-25T03:20:13.523Z,98615.53
2023-01-25T03:25:22.145Z,98644.34
2023-01-25T03:30:24.858Z,98573.69
2023-01-25T03:35:27.508Z,98537.13
2023-01-25T03:40:30.547Z,98463.91
2023-01-25T03:45:33.302Z,98491.84
2023-01-25T03:50:35.892Z,98477.84
2023-01-25T03:55:38.578Z,98454.34
2023-01-25T04:00:41.264Z,98437.78
2023-01-25T04:05:44.555Z,98700.94
2023-01-25T04:10:53.032Z,98679.09
2023-01-25T04:15:56.151Z,98530.16
2023-01-25T04:20:59.056Z,98678.28
2023-01-25T04:26:06.400Z,98651.31
2023-01-25T04:31:08.992Z,98413.44
2023-01-25T04:36:12.134Z,98668.81
2023-01-25T04:41:14.682Z,98571.13
2023-01-25T04:46:17.538Z,98390.78
2023-01-25T04:51:20.176Z,98600.75
2023-01-25T04:56:33.108Z,98585.06
2023-01-25T05:01:35.699Z,98553.59
2023-01-25T05:06:38.439Z,98381.19
2023-01-25T05:11:41.182Z,98547.47
2023-01-25T05:16:44.085Z,98662.50
2023-01-25T05:21:58.722Z,98544.94
2023-01-25T05:27:04.401Z,98670.38
2023-01-25T05:32:09.642Z,98661.53
2023-01-25T05:37:14.272Z,98633.53
2023-01-25T05:42:19.999Z,98453.22
2023-01-25T05:47:22.749Z,98308.59
2023-01-25T05:52:25.595Z,98439.16
2023-01-25T05:57:29.888Z,98630.75
2023-01-25T06:02:33.610Z,98631.44
2023-01-25T06:07:39.917Z,98607.09
2023-01-25T06:12:42.693Z,98614.19
2023-01-25T06:17:45.345Z,98578.47
2023-01-25T06:22:57.900Z,98591.22
2023-01-25T06:28:10.591Z,98544.22
2023-01-25T06:33:13.099Z,98299.81
2023-01-25T06:38:16.222Z,98546.84
2023-01-25T06:43:18.749Z,98632.28
2023-01-25T06:48:21.379Z,98573.63
2023-01-25T06:53:26.078Z,98539.75
2023-01-25T06:58:29.879Z,98289.94
2023-01-25T07:03:33.369Z,98429.22
2023-01-25T07:08:46.631Z,98490.16
2023-01-25T07:13:49.796Z,98557.06
2023-01-25T07:18:52.567Z,98296.84
2023-01-25T07:24:01.655Z,98611.16
2023-01-25T07:29:16.587Z,98599.84
2023-01-25T07:34:19.539Z,98573.59
2023-01-25T07:39:22.075Z,98315.91
2023-01-25T07:44:24.630Z,98425.59
2023-01-25T07:49:27.230Z,98543.88
2023-01-25T07:54:29.968Z,98354.09
2023-01-25T07:59:32.919Z,98521.00
2023-01-25T08:04:35.423Z,98569.78
2023-01-25T08:09:38.226Z,98328.09
2023-01-25T08:14:41.003Z,98574.88
2023-01-25T08:19:43.877Z,98451.28
2023-01-25T08:24:47.089Z,98541.69
2023-01-25T08:29:51.416Z,98544.31
2023-01-25T08:34:54.367Z,98514.63
2023-01-25T08:39:58.714Z,98565.13
2023-01-25T08:45:03.531Z,98558.81
2023-01-25T08:50:07.573Z,98545.75
2023-01-25T08:55:30.409Z,98540.13
2023-01-25T09:00:33.142Z,98543.13
2023-01-25T09:05:36.585Z,98461.53
2023-01-25T09:10:48.948Z,98470.06
2023-01-25T09:15:51.594Z,98574.94
2023-01-25T09:20:54.313Z,98603.63
2023-01-25T09:25:59.549Z,98583.44
2023-01-25T09:31:21.006Z,98529.56
2023-01-25T09:36:24.859Z,98564.13
2023-01-25T09:41:54.774Z,98615.22
2023-01-25T09:47:25.623Z,98540.81
2023-01-25T09:52:47.724Z,98616.66
2023-01-25T09:57:54.830Z,98570.22
2023-01-25T10:03:21.173Z,98571.53
2023-01-25T10:08:40.061Z,98567.28
2023-01-25T10:13:42.842Z,98415.00
2023-01-25T10:18:48.381Z,98528.41
2023-01-25T10:24:01.042Z,98407.56
2023-01-25T10:29:21.484Z,98473.06
2023-01-25T10:34:33.205Z,98504.91
2023-01-25T10:40:05.126Z,98493.59
2023-01-25T10:45:17.889Z,98503.53
2023-01-25T10:50:47.292Z,98421.41
2023-01-25T10:56:06.433Z,98470.31
2023-01-25T11:01:13.867Z,98183.47
2023-01-25T11:06:31.030Z,98453.94
2023-01-25T11:11:43.745Z,98300.19
2023-01-25T11:16:51.752Z,98429.91
2023-01-25T11:21:55.965Z,98398.22
2023-01-25T11:27:18.559Z,98370.69
2023-01-25T11:32:23.435Z,98262.50
2023-01-25T11:37:42.693Z,98295.13
2023-01-25T11:43:07.815Z,98287.97
2023-01-25T11:48:19.281Z,98315.13
2023-01-25T11:54:10.274Z,98270.28
2023-01-25T11:59:31.434Z,98280.22
2023-01-25T12:05:21.038Z,98262.03
2023-01-25T12:10:45.551Z,98173.41
2023-01-25T12:15:50.990Z,98230.81
2023-01-25T12:21:08.090Z,98227.78
2023-01-25T12:26:34.450Z,98212.66
2023-01-25T12:31:44.861Z,98188.31
2023-01-25T12:37:00.461Z,98169.00
2023-01-25T12:42:19.876Z,98222.09
2023-01-25T12:47:47.590Z,98209.38
2023-01-25T12:53:10.128Z,98215.78
2023-01-25T12:58:40.171Z,98226.13
2023-01-25T13:04:00.379Z,98222.28
2023-01-25T13:09:22.198Z,98238.53
2023-01-25T13:14:40.228Z,98215.63
2023-01-25T13:19:43.965Z,98216.00
2023-01-25T13:25:05.070Z,98246.72
2023-01-25T13:30:17.069Z,98258.22
2023-01-25T13:35:27.296Z,98218.16
2023-01-25T13:40:39.181Z,98268.53
2023-01-25T13:45:43.012Z,98179.13
2023-01-25T13:51:18.874Z,98183.69
2023-01-25T13:56:33.379Z,98261.94
2023-01-25T14:01:37.837Z,98213.16
2023-01-25T14:06:42.018Z,98291.88
2023-01-25T14:11:53.805Z,98255.94
2023-01-25T14:17:20.167Z,98275.38
2023-01-25T14:22:28.148Z,97999.44
2023-01-25T14:27:31.991Z,98050.09
2023-01-25T14:32:34.828Z,97975.50
2023-01-25T14:37:42.999Z,98278.31
2023-01-25T14:42:45.887Z,98210.97
2023-01-25T14:47:59.479Z,98298.72
2023-01-25T14:53:23.308Z,98220.91
2023-01-25T14:58:36.152Z,98205.88
2023-01-25T15:03:45.598Z,98210.25
2023-01-25T15:08:48.247Z,98183.47
2023-01-25T15:14:03.468Z,98291.19
2023-01-25T15:19:28.385Z,98209.31
2023-01-25T15:24:31.494Z,98181.31
2023-01-25T15:29:34.088Z,98008.91
2023-01-25T15:34:36.640Z,98176.84
2023-01-25T15:39:40.402Z,97992.47
2023-01-25T15:44:43.961Z,98251.75
2023-01-25T15:49:56.749Z,98233.88
2023-01-25T15:55:01.780Z,97969.22
2023-01-25T16:00:07.705Z,97997.88
2023-01-25T16:05:10.872Z,98157.34
2023-01-25T16:10:23.673Z,98194.63
2023-01-25T16:15:26.473Z,98106.28
2023-01-25T16:20:29.336Z,98183.34
2023-01-25T16:25:32.147Z,98068.16
2023-01-25T16:30:35.849Z,98144.50
2023-01-25T16:35:38.521Z,98065.53
2023-01-25T16:40:41.278Z,98034.03
2023-01-25T16:45:43.937Z,97930.16
2023-01-25T16:50:56.720Z,98146.16
2023-01-25T16:56:00.056Z,98153.78
2023-01-25T17:01:09.628Z,98100.94
2023-01-25T17:06:20.628Z,98146.81
2023-01-25T17:11:24.122Z,98128.63
2023-01-25T17:16:29.586Z,98122.38
2023-01-25T17:21:33.687Z,98125.84
2023-01-25T17:26:36.644Z,97831.00
2023-01-25T17:31:40.433Z,98033.69
2023-01-25T17:36:44.869Z,97885.75
2023-01-25T17:41:49.907Z,98099.66
2023-01-25T17:46:54.032Z,98126.66
2023-01-25T17:51:56.695Z,97878.56
2023-01-25T17:56:59.213Z,98054.66
2023-01-25T18:02:01.904Z,97804.22
2023-01-25T18:07:04.737Z,97820.59
2023-01-25T18:12:20.255Z,98079.72
2023-01-25T18:17:29.873Z,97743.47
2023-01-25T18:22:35.731Z,97926.22
2023-01-25T18:27:38.668Z,98026.75
2023-01-25T18:32:41.417Z,97835.34
2023-01-25T18:37:46.848Z,97844.78
2023-01-25T18:42:50.303Z,97743.97
2023-01-25T18:47:56.036Z,98037.41
2023-01-25T18:52:58.868Z,97850.94
2023-01-25T18:58:05.305Z,97901.09
2023-01-25T19:03:08.118Z,97893.16
2023-01-25T19:08:10.736Z,97843.88
2023-01-25T19:13:13.637Z,97985.03
2023-01-25T19:18:16.940Z,97967.88
2023-01-25T19:23:20.288Z,97898.34
2023-01-25T19:28:35.558Z,97986.69
2023-01-25T19:33:39.824Z,97926.88
2023-01-25T19:38:44.462Z,97993.84
2023-01-25T19:43:53.372Z,97870.56
2023-01-25T19:48:57.462Z,97937.47
2023-01-25T19:54:11.497Z,97940.16
2023-01-25T19:59:18.329Z,97973.16
2023-01-25T20:04:23.743Z,97709.22
2023-01-25T20:09:28.760Z,97960.97
2023-01-25T20:14:32.143Z,97963.59
2023-01-25T20:19:37.937Z,97989.88
2023-01-25T20:24:41.877Z,97916.13
2023-01-25T20:29:50.164Z,97799.91
2023-01-25T20:34:53.695Z,97823.56
2023-01-25T20:39:57.543Z,97836.78
2023-01-25T20:45:01.575Z,97946.94
2023-01-25T20:50:05.169Z,97655.00
2023-01-25T20:55:09.837Z,97678.16
2023-01-25T21:00:15.165Z,97870.72
2023-01-25T21:05:18.745Z,97774.63
2023-01-25T21:10:26.532Z,97870.69
2023-01-25T21:15:30.153Z,97917.56
2023-01-25T21:20:33.630Z,97890.78
2023-01-25T21:25:37.160Z,97862.16
2023-01-25T21:30:40.908Z,97909.75
2023-01-25T21:35:44.306Z,97822.19
2023-01-25T21:40:48.424Z,97765.19
2023-01-25T21:46:27.851Z,97846.69
2023-01-25T21:51:36.979Z,97841.16
2023-01-25T21:56:42.274Z,97766.63
2023-01-25T22:01:46.308Z,97734.56
2023-01-25T22:06:51.456Z,97727.78
2023-01-25T22:11:54.924Z,97860.97
2023-01-25T22:16:59.045Z,97773.53
2023-01-25T22:22:02.774Z,97828.59
2023-01-25T22:27:31.217Z,97854.84
2023-01-25T22:32:35.130Z,97858.25
2023-01-25T22:37:38.967Z,97720.69
2023-01-25T22:42:42.310Z,97856.59
2023-01-25T22:47:55.760Z,97793.16
2023-01-25T22:52:59.096Z,97736.25
2023-01-25T22:58:02.426Z,97775.78
2023-01-25T23:03:06.169Z,97577.84
2023-01-25T23:08:09.544Z,97667.53
2023-01-25T23:13:13.485Z,97737.06
2023-01-25T23:18:35.665Z,97607.06
2023-01-25T23:23:50.312Z,97800.78
2023-01-25T23:28:56.088Z,97612.13
2023-01-25T23:34:01.928Z,97747.09
2023-01-25T23:39:05.827Z,97619.91
2023-01-25T23:44:19.334Z,97628.41
2023-01-25T23:49:23.067Z,97492.03
2023-01-25T23:54:27.927Z,97725.25
2023-01-25T23:59:31.299Z,97689.66
